Pagrindinis puslapis
METAR-TAF:

METAR-TAF

Oro uostai :

Niamėjus, Nigeris

platuma: 13-29N, ilguma: 002-10E, Aukštis: 223 m

Dabartinis oras

Ataskaita buvo paskelbta 57 minutes, ne 19:00 UTC
Vėjas 4 kt iš Vakarų/Šiaurės Vakarų
Temperatūra 30°C
Drėgmė 17%
Slėgis 1010 hPa
Matomumas: 4000 m
dulkės

METAR: DRRN 251900Z 29004KT 4000 DU NSC 30/02 Q1010 NOSIG

Laikas: 20:57 (19:57 UTC)

Prognozė

Ataskaita buvo paskelbta 2 valandos ir 57 minutes, ne 17:00 UTC
Prognozė galioja nuo 25 metu 18 UTC su 26 metu 24 UTC
Vėjas 10 kt iš Šiaurės/Šiaurės Vakarų
Matomumas: 8000 m
Laikinai
nuo 25 metu 18 UTC su 25 metu 20 UTC
Matomumas: 4000 m
dulkės
Laikinai
nuo 26 metu 06 UTC su 26 metu 08 UTC
Matomumas: 3500 m
dulkės

TAF: DRRN 251700Z 2518/2624 33010KT 8000 NSC TEMPO 2518/2520 4000 DU TEMPO 2606/2608 3500 DU

Orai ataskaitas ir orų prognozės (METAR, TAF).

turimą stotys yra geltonos ir raudonos taškus žemėlapyje.

Perkelti pele per norėdami pamatyti stoties vardą.

Tada spustelėkite, norėdami matyti oro stebėjimo ir prognozės.

Norėdami pakeisti žemėlapį: spustelėkite ant žalios mygtukų su juodo kryžiaus žemyn,; žalią mygtuką su brūkšneliu, jei norite nutolinti; arba žalių rodyklių gretimoms žemėlapius.


METAR-TAF: